createdAt,value
2018-05-10T00:00:34.111Z,17.4
2018-05-10T00:01:36.151Z,17.4
2018-05-10T00:02:38.283Z,17.4
2018-05-10T00:03:40.251Z,17.4
2018-05-10T00:04:42.582Z,17.4
2018-05-10T00:05:44.638Z,17.5
2018-05-10T00:06:46.683Z,17.4
2018-05-10T00:07:50.031Z,17.5
2018-05-10T00:08:52.019Z,17.5
2018-05-10T00:09:54.057Z,17.5
2018-05-10T00:10:56.101Z,17.5
2018-05-10T00:11:58.147Z,17.6
2018-05-10T00:13:00.197Z,17.6
2018-05-10T00:14:02.629Z,17.6
2018-05-10T00:15:05.052Z,17.6
2018-05-10T00:16:07.785Z,17.6
2018-05-10T00:17:09.836Z,17.7
2018-05-10T00:18:11.868Z,17.6
2018-05-10T00:19:13.926Z,17.7
2018-05-10T00:20:15.972Z,17.7
2018-05-10T00:21:18.030Z,17.6
2018-05-10T00:22:20.068Z,17.6
2018-05-10T00:23:22.119Z,17.6
2018-05-10T00:24:24.240Z,17.6
2018-05-10T00:25:26.212Z,17.5
2018-05-10T00:26:28.274Z,17.5
2018-05-10T00:27:30.319Z,17.5
2018-05-10T00:28:32.368Z,17.4
2018-05-10T00:29:34.418Z,17.4
2018-05-10T00:30:36.754Z,17.4
2018-05-10T00:31:38.786Z,17.4
2018-05-10T00:32:41.216Z,17.4
2018-05-10T00:33:43.260Z,17.3
2018-05-10T00:34:45.307Z,17.3
2018-05-10T00:35:47.351Z,17.3
2018-05-10T00:36:49.399Z,17.2
2018-05-10T00:37:51.457Z,17.2
2018-05-10T00:38:53.768Z,17.2
2018-05-10T00:39:55.832Z,17.2
2018-05-10T00:40:57.893Z,17.2
2018-05-10T00:41:59.948Z,17.2
2018-05-10T00:43:01.983Z,17.2
2018-05-10T00:44:04.030Z,17.2
2018-05-10T00:45:06.080Z,17.1
2018-05-10T00:46:08.121Z,17.1
2018-05-10T00:47:10.167Z,17.1
2018-05-10T00:48:12.230Z,17.1
2018-05-10T00:49:14.260Z,17.1
2018-05-10T00:50:16.666Z,17.1
2018-05-10T00:51:18.720Z,17.1
2018-05-10T00:52:20.759Z,17.1
2018-05-10T00:53:23.123Z,17.1
2018-05-10T00:54:25.166Z,17.1
2018-05-10T00:55:27.220Z,17.1
2018-05-10T00:56:29.658Z,17.1
2018-05-10T00:57:31.727Z,17.1
2018-05-10T00:58:33.742Z,17.1
2018-05-10T00:59:35.893Z,17.1
2018-05-10T01:00:37.931Z,17.1
2018-05-10T01:01:40.263Z,17.1
2018-05-10T01:02:42.598Z,17
2018-05-10T01:03:44.648Z,17
2018-05-10T01:04:47.154Z,17
2018-05-10T01:05:49.156Z,17
2018-05-10T01:06:51.191Z,17
2018-05-10T01:07:53.516Z,17
2018-05-10T01:08:55.572Z,17
2018-05-10T01:09:57.998Z,17.1
2018-05-10T01:11:00.047Z,17.1
2018-05-10T01:12:02.091Z,17.1
2018-05-10T01:13:04.522Z,17
2018-05-10T01:14:06.627Z,17
2018-05-10T01:15:08.659Z,17
2018-05-10T01:16:10.724Z,17
2018-05-10T01:17:12.763Z,17
2018-05-10T01:18:14.811Z,17
2018-05-10T01:19:17.134Z,17
2018-05-10T01:20:19.864Z,17
2018-05-10T01:21:21.906Z,17.1
2018-05-10T01:22:23.952Z,17.1
2018-05-10T01:23:26.281Z,17.1
2018-05-10T01:24:28.328Z,17.1
2018-05-10T01:25:30.385Z,17.1
2018-05-10T01:26:32.432Z,17.1
2018-05-10T01:27:34.860Z,17.1
2018-05-10T01:28:36.913Z,17.1
2018-05-10T01:29:38.957Z,17.2
2018-05-10T01:30:40.989Z,17.2
2018-05-10T01:31:43.031Z,17.2
2018-05-10T01:32:45.468Z,17.2
2018-05-10T01:33:47.505Z,17.2
2018-05-10T01:34:50.020Z,17.2
2018-05-10T01:35:52.639Z,17.2
2018-05-10T01:36:54.980Z,17.2
2018-05-10T01:37:57.009Z,17.2
2018-05-10T01:38:59.049Z,17.3
2018-05-10T01:40:01.438Z,17.3
2018-05-10T01:41:03.501Z,17.3
2018-05-10T01:42:05.944Z,17.3
2018-05-10T01:43:08.304Z,17.3
2018-05-10T01:44:10.349Z,17.3
2018-05-10T01:45:12.706Z,17.3
2018-05-10T01:46:14.759Z,17.3
2018-05-10T01:47:16.793Z,17.3
2018-05-10T01:48:19.148Z,17.2
2018-05-10T01:49:21.875Z,17.2
2018-05-10T01:50:23.918Z,17.3
2018-05-10T01:51:25.971Z,17.3
2018-05-10T01:52:28.007Z,17.3
2018-05-10T01:53:30.066Z,17.3
2018-05-10T01:54:32.394Z,17.3
2018-05-10T01:55:34.822Z,17.3
2018-05-10T01:56:36.888Z,17.3
2018-05-10T01:57:38.916Z,17.3
2018-05-10T01:58:40.964Z,17.3
2018-05-10T01:59:43.002Z,17.3
2018-05-10T02:00:45.042Z,17.3
2018-05-10T02:01:47.080Z,17.3
2018-05-10T02:02:49.123Z,17.3
2018-05-10T02:03:51.175Z,17.3
2018-05-10T02:04:53.217Z,17.3
2018-05-10T02:05:55.263Z,17.3
2018-05-10T02:06:57.307Z,17.3
2018-05-10T02:07:59.635Z,17.3
2018-05-10T02:09:01.680Z,17.3
2018-05-10T02:10:03.735Z,17.2
2018-05-10T02:11:05.760Z,17.2
2018-05-10T02:12:07.814Z,17.2
2018-05-10T02:13:09.848Z,17.2
2018-05-10T02:14:11.904Z,17.2
2018-05-10T02:15:13.950Z,17.1
2018-05-10T02:16:15.987Z,17.1
2018-05-10T02:17:18.036Z,17.1
2018-05-10T02:18:20.076Z,17.1
2018-05-10T02:19:22.119Z,17.1
2018-05-10T02:20:24.177Z,17.2
2018-05-10T02:21:26.226Z,17.2
2018-05-10T02:22:28.270Z,17.2
2018-05-10T02:23:30.318Z,17.2
2018-05-10T02:24:32.654Z,17.2
2018-05-10T02:25:35.276Z,17.3
2018-05-10T02:26:37.315Z,17.2
2018-05-10T02:27:39.645Z,17.2
2018-05-10T02:28:41.690Z,17.2
2018-05-10T02:29:44.180Z,17.2
2018-05-10T02:30:46.470Z,17.2
2018-05-10T02:31:48.514Z,17.2
2018-05-10T02:32:50.557Z,17.3
2018-05-10T02:33:52.896Z,17.3
2018-05-10T02:34:55.234Z,17.2
2018-05-10T02:35:57.571Z,17.2
2018-05-10T02:36:59.906Z,17.2
2018-05-10T02:38:01.957Z,17.2
2018-05-10T02:39:03.991Z,17.2
2018-05-10T02:40:06.421Z,17.2
2018-05-10T02:41:08.471Z,17.2
2018-05-10T02:42:10.513Z,17.2
2018-05-10T02:43:12.860Z,17.2
2018-05-10T02:44:14.909Z,17.3
2018-05-10T02:45:17.264Z,17.2
2018-05-10T02:46:19.695Z,17.3
2018-05-10T02:47:22.142Z,17.3
2018-05-10T02:48:24.587Z,17.2
2018-05-10T02:49:26.635Z,17.3
2018-05-10T02:50:28.686Z,17.3
2018-05-10T02:51:30.742Z,17.3
2018-05-10T02:52:32.788Z,17.3
2018-05-10T02:53:34.830Z,17.3
2018-05-10T02:54:37.270Z,17.3
2018-05-10T02:55:39.714Z,17.3
2018-05-10T02:56:41.762Z,17.2
2018-05-10T02:57:43.805Z,17.2
2018-05-10T02:58:46.139Z,17.2
2018-05-10T02:59:48.192Z,17.2
2018-05-10T03:00:50.904Z,17.2
2018-05-10T03:01:53.248Z,17.2
2018-05-10T03:02:55.280Z,17.2
2018-05-10T03:03:57.319Z,17.2
2018-05-10T03:04:59.767Z,17.2
2018-05-10T03:06:01.805Z,17.2
2018-05-10T03:07:03.858Z,17.2
2018-05-10T03:08:05.891Z,17.2
2018-05-10T03:09:08.533Z,17.2
2018-05-10T03:10:10.576Z,17.2
2018-05-10T03:11:12.616Z,17.2
2018-05-10T03:12:14.682Z,17.1
2018-05-10T03:13:17.032Z,17.1
2018-05-10T03:14:19.078Z,17.1
2018-05-10T03:15:21.121Z,17
2018-05-10T03:16:23.157Z,17.1
2018-05-10T03:17:25.492Z,17.1
2018-05-10T03:18:27.538Z,17.1
2018-05-10T03:19:29.584Z,17
2018-05-10T03:20:31.625Z,17
2018-05-10T03:21:33.676Z,17
2018-05-10T03:22:35.710Z,17
2018-05-10T03:23:37.752Z,16.9
2018-05-10T03:24:40.200Z,17
2018-05-10T03:25:42.528Z,16.9
2018-05-10T03:26:44.557Z,16.9
2018-05-10T03:27:46.603Z,16.9
2018-05-10T03:28:48.649Z,16.8
2018-05-10T03:29:50.996Z,16.8
2018-05-10T03:30:53.649Z,16.8
2018-05-10T03:31:55.704Z,16.8
2018-05-10T03:32:58.036Z,16.8
2018-05-10T03:34:00.074Z,16.8
2018-05-10T03:35:02.115Z,16.8
2018-05-10T03:36:04.161Z,16.8
2018-05-10T03:37:06.201Z,16.8
2018-05-10T03:38:08.541Z,16.8
2018-05-10T03:39:10.578Z,16.8
2018-05-10T03:40:12.621Z,16.8
2018-05-10T03:41:14.671Z,16.8
2018-05-10T03:42:16.727Z,16.8
2018-05-10T03:43:18.779Z,16.8
2018-05-10T03:44:21.109Z,16.7
2018-05-10T03:45:23.426Z,16.7
2018-05-10T03:46:26.020Z,16.7
2018-05-10T03:47:27.996Z,16.6
2018-05-10T03:48:30.033Z,16.6
2018-05-10T03:49:32.368Z,16.6
2018-05-10T03:50:34.703Z,16.6
2018-05-10T03:51:36.745Z,16.6
2018-05-10T03:52:38.785Z,16.6
2018-05-10T03:53:40.826Z,16.6
2018-05-10T03:54:42.883Z,16.6
2018-05-10T03:55:44.931Z,16.6
2018-05-10T03:56:46.968Z,16.6
2018-05-10T03:57:49.022Z,16.6
2018-05-10T03:58:51.060Z,16.6
2018-05-10T03:59:53.096Z,16.5
2018-05-10T04:00:55.147Z,16.5
2018-05-10T04:01:57.184Z,16.5
2018-05-10T04:02:59.505Z,16.6
2018-05-10T04:04:01.540Z,16.6
2018-05-10T04:05:03.584Z,16.5
2018-05-10T04:06:05.750Z,16.5
2018-05-10T04:07:08.789Z,16.5
2018-05-10T04:08:10.836Z,16.5
2018-05-10T04:09:12.882Z,16.5
2018-05-10T04:10:14.932Z,16.5
2018-05-10T04:11:17.290Z,16.5
2018-05-10T04:12:19.622Z,16.5
2018-05-10T04:13:21.942Z,16.5
2018-05-10T04:14:23.992Z,16.5
2018-05-10T04:15:26.029Z,16.5
2018-05-10T04:16:28.063Z,16.5
2018-05-10T04:17:30.103Z,16.5
2018-05-10T04:18:32.450Z,16.5
2018-05-10T04:19:34.495Z,16.5
2018-05-10T04:20:36.534Z,16.5
2018-05-10T04:21:38.870Z,16.5
2018-05-10T04:22:41.780Z,16.5
2018-05-10T04:23:43.822Z,16.5
2018-05-10T04:24:45.860Z,16.5
2018-05-10T04:25:47.923Z,16.5
2018-05-10T04:26:49.965Z,16.5
2018-05-10T04:27:52.006Z,16.5
2018-05-10T04:28:54.047Z,16.5
2018-05-10T04:29:56.083Z,16.5
2018-05-10T04:30:58.131Z,16.5
2018-05-10T04:32:00.170Z,16.5
2018-05-10T04:33:02.237Z,16.5
2018-05-10T04:34:04.286Z,16.5
2018-05-10T04:35:06.617Z,16.5
2018-05-10T04:36:08.654Z,16.5
2018-05-10T04:37:11.084Z,16.5
2018-05-10T04:38:13.141Z,16.5
2018-05-10T04:39:15.181Z,16.5
2018-05-10T04:40:17.227Z,16.5
2018-05-10T04:41:19.654Z,16.5
2018-05-10T04:42:21.793Z,16.5
2018-05-10T04:43:24.038Z,16.5
2018-05-10T04:44:26.371Z,16.5
2018-05-10T04:45:28.421Z,16.5
2018-05-10T04:46:30.458Z,16.5
2018-05-10T04:47:32.486Z,16.6
2018-05-10T04:48:34.525Z,16.6
2018-05-10T04:49:36.890Z,16.6
2018-05-10T04:50:39.219Z,16.6
2018-05-10T04:51:41.254Z,16.6
2018-05-10T04:52:43.299Z,16.6
2018-05-10T04:53:45.338Z,16.7
2018-05-10T04:54:47.411Z,16.7
2018-05-10T04:55:49.746Z,16.7
2018-05-10T04:56:51.777Z,16.7
2018-05-10T04:57:53.818Z,16.8
2018-05-10T04:58:55.873Z,16.8
2018-05-10T04:59:57.907Z,16.8
2018-05-10T05:00:59.944Z,16.7
2018-05-10T05:02:01.991Z,16.7
2018-05-10T05:03:04.326Z,16.8
2018-05-10T05:04:06.364Z,16.8
2018-05-10T05:05:08.404Z,16.9
2018-05-10T05:06:10.456Z,16.9
2018-05-10T05:07:12.497Z,16.9
2018-05-10T05:08:14.921Z,17
2018-05-10T05:09:16.965Z,17
2018-05-10T05:10:19.006Z,17
2018-05-10T05:11:21.054Z,17
2018-05-10T05:12:23.092Z,17
2018-05-10T05:13:25.131Z,17.1
2018-05-10T05:14:27.179Z,17.1
2018-05-10T05:15:29.876Z,17.1
2018-05-10T05:16:31.919Z,17.1
2018-05-10T05:17:33.964Z,17.2
2018-05-10T05:18:36.001Z,17.2
2018-05-10T05:19:38.047Z,17.2
2018-05-10T05:20:40.079Z,17.3
2018-05-10T05:21:42.132Z,17.3
2018-05-10T05:22:44.451Z,17.3
2018-05-10T05:23:46.486Z,17.3
2018-05-10T05:24:48.529Z,17.4
2018-05-10T05:25:50.956Z,17.5
2018-05-10T05:26:53.405Z,17.5
2018-05-10T05:27:55.360Z,17.5
2018-05-10T05:28:57.403Z,17.5
2018-05-10T05:29:59.462Z,17.5
2018-05-10T05:31:01.787Z,17.5
2018-05-10T05:32:03.814Z,17.5
2018-05-10T05:33:05.873Z,17.5
2018-05-10T05:34:08.303Z,17.4
2018-05-10T05:35:10.355Z,17.5
2018-05-10T05:36:12.681Z,17.5
2018-05-10T05:37:14.729Z,17.6
2018-05-10T05:38:17.069Z,17.6
2018-05-10T05:39:19.404Z,17.6
2018-05-10T05:40:21.438Z,17.7
2018-05-10T05:41:23.921Z,17.7
2018-05-10T05:42:25.893Z,17.8
2018-05-10T05:43:28.560Z,17.8
2018-05-10T05:44:30.474Z,17.8
2018-05-10T05:45:32.522Z,17.8
2018-05-10T05:46:34.562Z,17.8
2018-05-10T05:47:36.605Z,17.8
2018-05-10T05:48:38.634Z,17.8
2018-05-10T05:49:40.678Z,17.9
2018-05-10T05:50:42.721Z,17.9
2018-05-10T05:51:44.776Z,17.9
2018-05-10T05:52:47.491Z,17.8
2018-05-10T05:53:49.532Z,17.8
2018-05-10T05:54:51.577Z,17.8
2018-05-10T05:55:53.611Z,17.8
2018-05-10T05:56:55.659Z,17.8
2018-05-10T05:57:57.703Z,17.8
2018-05-10T05:58:59.750Z,17.8
2018-05-10T06:00:01.812Z,17.8
2018-05-10T06:01:03.832Z,17.8
2018-05-10T06:02:05.877Z,17.8
2018-05-10T06:03:07.926Z,17.8
2018-05-10T06:04:09.968Z,17.8
2018-05-10T06:05:12.319Z,17.9
2018-05-10T06:06:15.033Z,17.9
2018-05-10T06:07:17.078Z,17.9
2018-05-10T06:08:19.114Z,18
2018-05-10T06:09:21.160Z,18
2018-05-10T06:10:23.190Z,18
2018-05-10T06:11:25.237Z,18
2018-05-10T06:12:27.287Z,18.1
2018-05-10T06:13:29.317Z,18.1
2018-05-10T06:14:31.368Z,18
2018-05-10T06:15:33.778Z,18
2018-05-10T06:16:35.775Z,18.1
2018-05-10T06:17:38.116Z,18.2
2018-05-10T06:18:40.149Z,18.2
2018-05-10T06:19:42.500Z,18.4
2018-05-10T06:20:44.535Z,18.4
2018-05-10T06:21:46.573Z,18.5
2018-05-10T06:22:48.618Z,18.6
2018-05-10T06:23:50.657Z,18.7
2018-05-10T06:24:53.531Z,18.8
2018-05-10T06:25:55.760Z,18.8
2018-05-10T06:26:57.794Z,18.8
2018-05-10T06:28:00.720Z,18.9
2018-05-10T06:29:03.334Z,18.9
2018-05-10T06:30:05.378Z,19
2018-05-10T06:31:07.439Z,19
2018-05-10T06:32:09.479Z,19.1
2018-05-10T06:33:11.532Z,19.1
2018-05-10T06:34:13.899Z,19.1
2018-05-10T06:35:15.940Z,19
2018-05-10T06:36:17.990Z,19.1
2018-05-10T06:37:20.017Z,19.1
2018-05-10T06:38:22.074Z,19
2018-05-10T06:39:24.434Z,19.1
2018-05-10T06:40:26.471Z,19.1
2018-05-10T06:41:28.943Z,19.1
2018-05-10T06:42:31.639Z,19.1
2018-05-10T06:43:33.688Z,19.1
2018-05-10T06:44:36.029Z,19.1
2018-05-10T06:45:38.652Z,19.1
2018-05-10T06:46:40.994Z,19.1
2018-05-10T06:47:43.033Z,19.1
2018-05-10T06:48:45.083Z,19.1
2018-05-10T06:49:47.121Z,19.1
2018-05-10T06:50:49.160Z,19.1
2018-05-10T06:51:51.589Z,19.1
2018-05-10T06:52:53.642Z,19.2
2018-05-10T06:53:56.079Z,19.2
2018-05-10T06:54:58.409Z,19.3
2018-05-10T06:56:00.445Z,19.3
2018-05-10T06:57:02.507Z,19.3
2018-05-10T06:58:04.546Z,19.4
2018-05-10T06:59:06.974Z,19.4
2018-05-10T07:00:09.030Z,19.5
2018-05-10T07:01:11.071Z,19.5
2018-05-10T07:02:13.101Z,19.6
2018-05-10T07:03:15.158Z,19.7
2018-05-10T07:04:17.197Z,19.7
2018-05-10T07:05:19.528Z,19.8
2018-05-10T07:06:21.572Z,19.9
2018-05-10T07:07:23.625Z,20
2018-05-10T07:08:25.676Z,20.1
2018-05-10T07:09:29.095Z,20.2
2018-05-10T07:10:30.896Z,20.3
2018-05-10T07:11:32.954Z,20.3
2018-05-10T07:12:34.989Z,20.4
2018-05-10T07:13:37.042Z,20.4
2018-05-10T07:14:39.080Z,20.3
2018-05-10T07:15:41.130Z,20.3
2018-05-10T07:16:43.456Z,20.5
2018-05-10T07:17:45.532Z,20.5
2018-05-10T07:18:47.868Z,20.4
2018-05-10T07:19:49.914Z,20.5
2018-05-10T07:20:51.957Z,20.5
2018-05-10T07:21:54.003Z,20.6
2018-05-10T07:22:56.055Z,20.6
2018-05-10T07:23:58.103Z,20.6
2018-05-10T07:25:00.128Z,20.7
2018-05-10T07:26:02.133Z,20.8
2018-05-10T07:27:04.139Z,20.8
2018-05-10T07:28:06.126Z,20.8
2018-05-10T07:29:08.137Z,20.9
2018-05-10T07:30:10.154Z,21
2018-05-10T07:31:12.168Z,20.9
2018-05-10T07:32:14.167Z,21
2018-05-10T07:33:16.191Z,21.1
2018-05-10T07:34:18.199Z,21.1
2018-05-10T07:35:20.195Z,21.2
2018-05-10T07:36:22.209Z,21.3
2018-05-10T07:37:24.231Z,21.3
2018-05-10T07:38:27.191Z,21.3
2018-05-10T07:39:29.202Z,21.4
2018-05-10T07:40:31.196Z,21.5
2018-05-10T07:41:33.207Z,21.5
2018-05-10T07:42:35.593Z,21.5
2018-05-10T07:43:37.601Z,21.6
2018-05-10T07:44:39.628Z,21.6
2018-05-10T07:45:41.946Z,21.7
2018-05-10T07:46:43.954Z,21.8
2018-05-10T07:47:45.971Z,22
2018-05-10T07:48:48.347Z,22.1
2018-05-10T07:49:50.364Z,22.1
2018-05-10T07:50:52.380Z,22.1
2018-05-10T07:51:54.670Z,22.2
2018-05-10T07:52:56.687Z,22.1
2018-05-10T07:53:58.979Z,22
2018-05-10T07:55:00.981Z,22.1
2018-05-10T07:56:03.269Z,22.3
2018-05-10T07:57:05.561Z,22.4
2018-05-10T07:58:07.585Z,22.6
2018-05-10T07:59:09.875Z,22.7
2018-05-10T08:00:11.885Z,22.7
2018-05-10T08:01:13.899Z,22.8
2018-05-10T08:02:16.013Z,22.8
2018-05-10T08:03:17.917Z,22.8
2018-05-10T08:04:19.933Z,22.7
2018-05-10T08:05:22.497Z,22.5
2018-05-10T08:06:24.503Z,22.5
2018-05-10T08:07:26.523Z,22.7
2018-05-10T08:08:28.527Z,22.8
2018-05-10T08:09:30.525Z,22.8
2018-05-10T08:10:32.539Z,22.9
2018-05-10T08:11:34.925Z,22.9
2018-05-10T08:12:36.933Z,22.8
2018-05-10T08:13:39.329Z,22.7
2018-05-10T08:14:41.330Z,22.8
2018-05-10T08:15:43.341Z,22.9
2018-05-10T08:16:45.350Z,22.9
2018-05-10T08:17:47.359Z,23
2018-05-10T08:18:49.772Z,23.2
2018-05-10T08:19:51.775Z,23.3
2018-05-10T08:20:54.081Z,23.1
2018-05-10T08:21:56.092Z,23.1
2018-05-10T08:22:58.104Z,23.3
2018-05-10T08:24:00.106Z,23.3
2018-05-10T08:25:02.123Z,23.2
2018-05-10T08:26:04.132Z,23.3
2018-05-10T08:27:06.424Z,23.4
2018-05-10T08:28:08.432Z,23.4
2018-05-10T08:29:10.444Z,23.6
2018-05-10T08:30:12.512Z,23.7
2018-05-10T08:31:14.876Z,23.7
2018-05-10T08:32:16.900Z,23.8
2018-05-10T08:33:18.898Z,24.1
2018-05-10T08:34:20.902Z,24.3
2018-05-10T08:35:22.912Z,24.2
2018-05-10T08:36:24.926Z,24
2018-05-10T08:37:27.309Z,23.7
2018-05-10T08:38:29.316Z,23.6
2018-05-10T08:39:31.316Z,23.4
2018-05-10T08:40:33.336Z,23.3
2018-05-10T08:41:35.354Z,23.3
2018-05-10T08:42:37.365Z,23.3
2018-05-10T08:43:39.382Z,23.2
2018-05-10T08:44:41.384Z,23.3
2018-05-10T08:45:43.393Z,23.3
2018-05-10T08:46:45.405Z,23.3
2018-05-10T08:47:47.696Z,23.4
2018-05-10T08:48:50.096Z,23.5
2018-05-10T08:49:52.110Z,23.3
2018-05-10T08:50:54.509Z,23.3
2018-05-10T08:51:57.508Z,23.4
2018-05-10T08:52:59.804Z,23.4
2018-05-10T08:54:01.833Z,23.4
2018-05-10T08:55:03.847Z,23.5
2018-05-10T08:56:06.143Z,23.5
2018-05-10T08:57:08.150Z,23.5
2018-05-10T08:58:10.147Z,23.7
2018-05-10T08:59:12.165Z,24
2018-05-10T09:00:14.170Z,24.1
2018-05-10T09:01:16.178Z,24.5
2018-05-10T09:02:18.189Z,24.7
2018-05-10T09:03:20.499Z,24.8
2018-05-10T09:04:22.512Z,24.9
2018-05-10T09:05:24.512Z,25
2018-05-10T09:06:26.526Z,25.1
2018-05-10T09:07:28.941Z,25.4
2018-05-10T09:08:30.893Z,25.3
2018-05-10T09:09:32.924Z,25.1
2018-05-10T09:10:34.927Z,25.5
2018-05-10T09:11:36.961Z,25.3
2018-05-10T09:12:38.954Z,25.5
2018-05-10T09:13:40.977Z,25.4
2018-05-10T09:14:43.292Z,25.5
2018-05-10T09:15:46.365Z,25.4
2018-05-10T09:16:48.377Z,25.4
2018-05-10T09:17:50.381Z,25.5
2018-05-10T09:18:52.394Z,25.5
2018-05-10T09:19:54.700Z,25.5
2018-05-10T09:20:56.701Z,25.7
2018-05-10T09:21:58.996Z,25.8
2018-05-10T09:23:00.994Z,25.8
2018-05-10T09:24:03.018Z,25.6
2018-05-10T09:25:05.033Z,25.9
2018-05-10T09:26:07.085Z,25.9
2018-05-10T09:27:09.046Z,25.9
2018-05-10T09:28:11.056Z,25.9
2018-05-10T09:29:13.068Z,26.3
2018-05-10T09:30:15.079Z,26.1
2018-05-10T09:31:17.099Z,26.3
2018-05-10T09:32:19.784Z,26.2
2018-05-10T09:33:21.779Z,26.2
2018-05-10T09:34:23.792Z,26.4
2018-05-10T09:35:25.832Z,26.6
2018-05-10T09:36:28.531Z,26.7
2018-05-10T09:37:30.544Z,26.8
2018-05-10T09:38:32.577Z,26.8
2018-05-10T09:39:34.990Z,26.8
2018-05-10T09:40:37.353Z,26.9
2018-05-10T09:41:39.369Z,27
2018-05-10T09:42:41.376Z,27
2018-05-10T09:43:43.444Z,27.1
2018-05-10T09:44:45.568Z,27
2018-05-10T09:45:47.488Z,26.8
2018-05-10T09:46:49.800Z,27.1
2018-05-10T09:47:51.813Z,27.5
2018-05-10T09:48:54.132Z,27.4
2018-05-10T09:49:56.423Z,27.3
2018-05-10T09:50:58.437Z,27.4
2018-05-10T09:52:00.828Z,27.3
2018-05-10T09:53:02.846Z,27.2
2018-05-10T09:54:04.863Z,27.1
2018-05-10T09:55:07.166Z,26.8
2018-05-10T09:56:09.464Z,27.2
2018-05-10T09:57:11.858Z,27.1
2018-05-10T09:58:13.873Z,27.1
2018-05-10T09:59:16.282Z,27
2018-05-10T10:00:18.299Z,27.3
2018-05-10T10:01:21.300Z,27.1
2018-05-10T10:02:23.307Z,27.1
2018-05-10T10:03:25.338Z,27
2018-05-10T10:04:27.730Z,27.1
2018-05-10T10:05:29.729Z,27.2
2018-05-10T10:06:31.757Z,27
2018-05-10T10:07:33.779Z,26.6
2018-05-10T10:08:35.797Z,26.8
2018-05-10T10:09:37.809Z,26.9
2018-05-10T10:10:39.827Z,27.3
2018-05-10T10:11:41.957Z,27.4
2018-05-10T10:12:43.867Z,27.5
2018-05-10T10:13:45.862Z,27.6
2018-05-10T10:14:47.886Z,27.4
2018-05-10T10:15:49.954Z,27.4
2018-05-10T10:16:51.920Z,27.3
2018-05-10T10:17:53.934Z,27.5
2018-05-10T10:18:55.959Z,27.4
2018-05-10T10:19:57.970Z,27.3
2018-05-10T10:21:00.261Z,27.4
2018-05-10T10:22:02.273Z,27.6
2018-05-10T10:23:04.285Z,27.4
2018-05-10T10:24:06.298Z,27.2
2018-05-10T10:25:08.671Z,27.6
2018-05-10T10:26:11.359Z,27.9
2018-05-10T10:27:13.674Z,27.8
2018-05-10T10:28:15.676Z,27.8
2018-05-10T10:29:17.996Z,27.8
2018-05-10T10:30:20.000Z,27.6
2018-05-10T10:31:22.019Z,27.3
2018-05-10T10:32:24.438Z,27.5
2018-05-10T10:33:26.456Z,27.9
2018-05-10T10:34:28.476Z,28
2018-05-10T10:35:30.485Z,28.2
2018-05-10T10:36:32.789Z,28.1
2018-05-10T10:37:35.364Z,28.1
2018-05-10T10:38:37.392Z,28.1
2018-05-10T10:39:39.411Z,28
2018-05-10T10:40:41.707Z,28.2
2018-05-10T10:41:43.723Z,28.1
2018-05-10T10:42:45.737Z,28.3
2018-05-10T10:43:48.132Z,28.5
2018-05-10T10:44:50.528Z,28.5
2018-05-10T10:45:53.217Z,28.5
2018-05-10T10:46:55.249Z,28.7
2018-05-10T10:47:57.547Z,29
2018-05-10T10:48:59.555Z,28.4
2018-05-10T10:50:01.574Z,27.9
2018-05-10T10:51:04.187Z,28.1
2018-05-10T10:52:06.199Z,28
2018-05-10T10:53:08.203Z,28.3
2018-05-10T10:54:10.235Z,28.5
2018-05-10T10:55:12.254Z,28.5
2018-05-10T10:56:14.272Z,28.8
2018-05-10T10:57:16.290Z,28.8
2018-05-10T10:58:18.302Z,28.6
2018-05-10T10:59:20.317Z,28.7
2018-05-10T11:00:22.329Z,28.8
2018-05-10T11:01:24.346Z,28.9
2018-05-10T11:02:26.369Z,28.9
2018-05-10T11:03:28.376Z,29
2018-05-10T11:04:30.393Z,29
2018-05-10T11:05:32.415Z,29.1
2018-05-10T11:06:34.432Z,28.9
2018-05-10T11:07:36.449Z,28.8
2018-05-10T11:08:38.739Z,29
2018-05-10T11:09:40.762Z,29.2
2018-05-10T11:10:43.054Z,28.6
2018-05-10T11:11:45.074Z,28.5
2018-05-10T11:12:47.369Z,28.4
2018-05-10T11:13:49.382Z,28.7
2018-05-10T11:14:51.407Z,28.9
2018-05-10T11:15:53.428Z,28.7
2018-05-10T11:16:55.438Z,29.1
2018-05-10T11:17:57.766Z,29.1
2018-05-10T11:18:59.772Z,28.8
2018-05-10T11:20:01.799Z,28.7
2018-05-10T11:21:03.817Z,29
2018-05-10T11:22:06.217Z,29.3
2018-05-10T11:23:08.543Z,29.3
2018-05-10T11:24:10.558Z,28.9
2018-05-10T11:25:12.565Z,29.3
2018-05-10T11:26:14.590Z,29.7
2018-05-10T11:27:16.644Z,29.7
2018-05-10T11:28:19.021Z,29.7
2018-05-10T11:29:21.040Z,29.4
2018-05-10T11:30:23.060Z,29.7
2018-05-10T11:31:25.082Z,29.5
2018-05-10T11:32:27.381Z,29.1
2018-05-10T11:33:29.395Z,28.8
2018-05-10T11:34:31.421Z,28.7
2018-05-10T11:35:33.434Z,28.8
2018-05-10T11:36:35.458Z,28.5
2018-05-10T11:37:37.769Z,28.1
2018-05-10T11:38:39.790Z,28.1
2018-05-10T11:39:41.856Z,28.2
2018-05-10T11:40:43.868Z,28.3
2018-05-10T11:41:45.888Z,27.7
2018-05-10T11:42:47.917Z,28
2018-05-10T11:43:50.019Z,27.8
2018-05-10T11:44:52.379Z,27.5
2018-05-10T11:45:54.463Z,27.4
2018-05-10T11:46:57.525Z,27.4
2018-05-10T11:47:59.547Z,27.5
2018-05-10T11:49:01.562Z,27.5
2018-05-10T11:50:03.742Z,27.2
2018-05-10T11:51:05.766Z,27.3
2018-05-10T11:52:08.145Z,27.2
2018-05-10T11:53:10.452Z,27.1
2018-05-10T11:54:12.471Z,27.1
2018-05-10T11:55:14.819Z,27.1
2018-05-10T11:56:16.827Z,27.3
2018-05-10T11:57:19.139Z,27.6
2018-05-10T11:58:21.087Z,27.7
2018-05-10T11:59:23.575Z,27.6
2018-05-10T12:00:25.645Z,27.5
2018-05-10T12:01:28.155Z,27.4
2018-05-10T12:02:30.206Z,27.3
2018-05-10T12:03:32.205Z,27.4
2018-05-10T12:04:34.425Z,27.5
2018-05-10T12:05:36.448Z,27.3
2018-05-10T12:06:38.473Z,27.4
2018-05-10T12:07:40.586Z,27.8
2018-05-10T12:08:42.593Z,27.9
2018-05-10T12:09:44.828Z,27.7
2018-05-10T12:10:46.838Z,27.6
2018-05-10T12:11:48.890Z,27.7
2018-05-10T12:12:51.209Z,27.5
2018-05-10T12:13:53.228Z,27.9
2018-05-10T12:14:55.270Z,28.2
2018-05-10T12:15:57.598Z,28.5
2018-05-10T12:16:59.609Z,28.6
2018-05-10T12:18:02.215Z,29.1
2018-05-10T12:19:04.661Z,29.5
2018-05-10T12:20:08.726Z,29.5
2018-05-10T12:21:11.039Z,29.3
2018-05-10T12:22:13.140Z,29.4
2018-05-10T12:23:15.247Z,29.1
2018-05-10T12:24:17.311Z,29.1
2018-05-10T12:25:19.336Z,29.2
2018-05-10T12:26:21.471Z,29.5
2018-05-10T12:27:23.505Z,29.4
2018-05-10T12:28:25.533Z,29.5
2018-05-10T12:29:27.562Z,29.5
2018-05-10T12:30:30.084Z,29.2
2018-05-10T12:31:32.048Z,29.3
2018-05-10T12:32:34.104Z,29.1
2018-05-10T12:33:36.220Z,29.3
2018-05-10T12:34:38.557Z,29
2018-05-10T12:35:40.944Z,29.2
2018-05-10T12:36:42.991Z,29.1
2018-05-10T12:37:45.003Z,29.2
2018-05-10T12:38:47.018Z,29.4
2018-05-10T12:39:49.042Z,29.6
2018-05-10T12:40:51.330Z,29.2
2018-05-10T12:41:53.627Z,29.4
2018-05-10T12:42:55.647Z,29.3
2018-05-10T12:43:57.665Z,29.1
2018-05-10T12:44:59.685Z,28.6
2018-05-10T12:46:01.697Z,28.5
2018-05-10T12:47:03.708Z,28.2
2018-05-10T12:48:05.730Z,28.2
2018-05-10T12:49:08.029Z,28
2018-05-10T12:50:10.058Z,28
2018-05-10T12:51:12.074Z,28.2
2018-05-10T12:52:14.459Z,28.6
2018-05-10T12:53:16.472Z,28.7
2018-05-10T12:54:18.491Z,28.7
2018-05-10T12:55:20.512Z,28.8
2018-05-10T12:56:22.660Z,29
2018-05-10T12:57:25.211Z,29.1
2018-05-10T12:58:27.520Z,29.3
2018-05-10T12:59:29.912Z,29.6
2018-05-10T13:00:31.919Z,29.6
2018-05-10T13:01:33.946Z,29.6
2018-05-10T13:02:36.343Z,29.5
2018-05-10T13:03:38.453Z,29.2
2018-05-10T13:04:40.382Z,29.1
2018-05-10T13:05:42.393Z,29
2018-05-10T13:06:44.502Z,28.7
2018-05-10T13:07:46.419Z,28.6
2018-05-10T13:08:48.716Z,28.6
2018-05-10T13:09:51.146Z,28.9
2018-05-10T13:10:53.555Z,29.1
2018-05-10T13:11:55.577Z,29.1
2018-05-10T13:12:57.637Z,29.2
2018-05-10T13:13:59.618Z,29.4
2018-05-10T13:15:01.653Z,29.3
2018-05-10T13:16:04.366Z,29.2
2018-05-10T13:17:06.327Z,28.9
2018-05-10T13:18:08.344Z,29.4
2018-05-10T13:19:10.370Z,29.7
2018-05-10T13:20:12.419Z,30
2018-05-10T13:21:14.736Z,30.2
2018-05-10T13:22:16.752Z,30.1
2018-05-10T13:23:18.785Z,30.3
2018-05-10T13:24:21.039Z,30.4
2018-05-10T13:25:23.118Z,30.4
2018-05-10T13:26:25.132Z,30
2018-05-10T13:27:27.733Z,29.9
2018-05-10T13:28:29.753Z,29.7
2018-05-10T13:29:31.778Z,29.5
2018-05-10T13:30:33.851Z,29.3
2018-05-10T13:31:35.960Z,29.1
2018-05-10T13:32:37.962Z,29
2018-05-10T13:33:39.995Z,28.9
2018-05-10T13:34:42.001Z,28.8
2018-05-10T13:35:44.018Z,28.9
2018-05-10T13:36:46.031Z,28.8
2018-05-10T13:37:48.055Z,29
2018-05-10T13:38:50.463Z,28.9
2018-05-10T13:39:52.469Z,28.7
2018-05-10T13:40:54.492Z,28.9
2018-05-10T13:41:56.513Z,28.9
2018-05-10T13:42:58.906Z,29
2018-05-10T13:44:00.916Z,29.3
2018-05-10T13:45:02.935Z,29.1
2018-05-10T13:46:05.638Z,29.5
2018-05-10T13:47:07.728Z,29.5
2018-05-10T13:48:09.664Z,29.7
2018-05-10T13:49:11.686Z,29.7
2018-05-10T13:50:13.712Z,29.6
2018-05-10T13:51:16.018Z,29.4
2018-05-10T13:52:18.025Z,29.3